Time;durP1;ratioP1;P1;durP2;ratioP2;P2;SDS_P1;SDS_P2;PMS_P1;PMS_P2;Temp;Humidity;BMP_temperature;BMP_pressure;BME280_temperature;BME280_humidity;BME280_pressure;Samples;Min_cycle;Max_cycle;Signal;HPM_P1;HPM_P2
2022/04/29 00:00:46;;;;;;;;;;;13.40;71.20;;;;;;5096871;28;19919;-89
2022/04/29 00:03:12;;;;;;;;;;;13.40;69.90;;;;;;5097241;28;19969;-89
2022/04/29 00:05:40;;;;;;;;;;;13.40;72.50;;;;;;5096833;28;19913;-89
2022/04/29 00:08:06;;;;;;;;;;;13.40;71.80;;;;;;5096925;28;19957;-89
2022/04/29 00:10:32;;;;;;;;;;;13.40;72.90;;;;;;5078716;28;19996;-89
2022/04/29 00:12:59;;;;;;;;;;;13.40;72.60;;;;;;5076155;28;19954;-89
2022/04/29 00:15:25;;;;;;;;;;;13.30;72.30;;;;;;5076481;28;19955;-89
2022/04/29 00:17:51;;;;;;;;;;;13.20;73.00;;;;;;5076469;28;19947;-89
2022/04/29 00:20:16;;;;;;;;;;;13.20;73.40;;;;;;5076373;28;19941;-89
2022/04/29 00:22:44;;;;;;;;;;;13.30;73.80;;;;;;5076308;28;19919;-90
2022/04/29 00:25:10;;;;;;;;;;;13.40;74.00;;;;;;5076155;28;19964;-89
2022/04/29 00:27:35;;;;;;;;;;;13.40;72.80;;;;;;5076207;28;20367;-89
2022/04/29 00:30:01;;;;;;;;;;;13.50;71.20;;;;;;5075979;28;19943;-89
2022/04/29 00:32:27;;;;;;;;;;;13.60;70.30;;;;;;5076013;28;19912;-90
2022/04/29 00:34:52;;;;;;;;;;;13.70;69.90;;;;;;5075963;28;19912;-89
2022/04/29 00:37:18;;;;;;;;;;;13.70;72.10;;;;;;5076143;28;20016;-89
2022/04/29 00:39:44;;;;;;;;;;;13.60;72.40;;;;;;5076005;28;19919;-89
2022/04/29 00:42:10;;;;;;;;;;;13.70;71.00;;;;;;5076075;28;20497;-90
2022/04/29 00:44:37;;;;;;;;;;;13.80;69.80;;;;;;5075752;28;19957;-90
2022/04/29 00:47:04;;;;;;;;;;;13.90;69.70;;;;;;5075896;28;20395;-90
2022/04/29 00:49:30;;;;;;;;;;;13.90;69.50;;;;;;5075800;28;20450;-90
2022/04/29 00:51:56;;;;;;;;;;;13.90;68.30;;;;;;5075826;28;19964;-89
2022/04/29 00:54:27;;;;;;;;;;;14.10;67.50;;;;;;5075682;28;19938;-89
2022/04/29 00:56:53;;;;;;;;;;;14.10;66.80;;;;;;5075766;28;20402;-89
2022/04/29 00:59:28;;;;;;;;;;;14.20;65.90;;;;;;5075712;28;19958;-90
2022/04/29 01:01:55;;;;;;;;;;;14.30;65.10;;;;;;5075217;28;19908;-89
2022/04/29 01:04:35;;;;;;;;;;;14.40;64.30;;;;;;5075329;28;19940;-90
2022/04/29 01:07:01;;;;;;;;;;;14.40;62.70;;;;;;5075613;28;20431;-89
2022/04/29 01:09:27;;;;;;;;;;;14.50;62.20;;;;;;5075287;28;19920;-89
2022/04/29 01:11:52;;;;;;;;;;;14.50;61.90;;;;;;5075455;28;19929;-89
2022/04/29 01:14:18;;;;;;;;;;;14.50;61.20;;;;;;5075235;28;19972;-89
2022/04/29 01:16:44;;;;;;;;;;;14.60;60.90;;;;;;5075413;28;19964;-89
2022/04/29 01:19:09;;;;;;;;;;;14.60;60.20;;;;;;5075416;28;19977;-89
2022/04/29 01:21:35;;;;;;;;;;;14.60;60.10;;;;;;5075325;28;19915;-89
2022/04/29 01:24:00;;;;;;;;;;;14.60;59.90;;;;;;5075041;28;19948;-89
2022/04/29 01:26:26;;;;;;;;;;;14.60;61.00;;;;;;5057176;28;19927;-90
2022/04/29 01:28:51;;;;;;;;;;;14.60;62.30;;;;;;5074951;28;19959;-89
2022/04/29 01:31:19;;;;;;;;;;;14.50;62.10;;;;;;5075016;28;20370;-89
2022/04/29 01:33:47;;;;;;;;;;;14.50;61.50;;;;;;5056922;28;20029;-90
2022/04/29 01:36:12;;;;;;;;;;;14.50;61.10;;;;;;5075006;28;19908;-89
2022/04/29 01:38:39;;;;;;;;;;;14.60;60.80;;;;;;5074982;28;20385;-90
2022/04/29 01:41:07;;;;;;;;;;;14.50;60.10;;;;;;5075260;28;19951;-90
2022/04/29 01:43:33;;;;;;;;;;;14.60;60.70;;;;;;5074598;28;19975;-89
2022/04/29 01:45:59;;;;;;;;;;;14.50;59.30;;;;;;5075008;28;19949;-90
2022/04/29 01:48:25;;;;;;;;;;;14.60;58.40;;;;;;5075003;28;20347;-89
2022/04/29 01:50:50;;;;;;;;;;;14.60;58.10;;;;;;5074623;28;20005;-89
2022/04/29 01:53:16;;;;;;;;;;;14.60;57.60;;;;;;5074447;28;19951;-89
2022/04/29 01:55:41;;;;;;;;;;;14.70;57.20;;;;;;5074346;28;20317;-90
2022/04/29 01:58:07;;;;;;;;;;;14.80;57.40;;;;;;5074528;28;19938;-90
2022/04/29 02:00:33;;;;;;;;;;;14.70;57.60;;;;;;5074533;28;19938;-90
2022/04/29 02:02:58;;;;;;;;;;;14.70;57.40;;;;;;5074496;28;19938;-90
2022/04/29 02:05:24;;;;;;;;;;;14.60;59.80;;;;;;5074242;28;19934;-89
2022/04/29 02:07:49;;;;;;;;;;;14.50;61.40;;;;;;5074359;28;19977;-90
2022/04/29 02:10:16;;;;;;;;;;;14.40;60.90;;;;;;5074133;28;20473;-89
2022/04/29 02:12:41;;;;;;;;;;;14.30;62.20;;;;;;5073891;28;19951;-89
2022/04/29 02:15:07;;;;;;;;;;;14.20;62.50;;;;;;5073366;28;19982;-89
2022/04/29 02:17:33;;;;;;;;;;;14.10;64.70;;;;;;5074131;28;20068;-89
2022/04/29 02:19:58;;;;;;;;;;;14.00;64.50;;;;;;5074028;28;19910;-90
2022/04/29 02:22:24;;;;;;;;;;;13.90;65.10;;;;;;5074333;28;20406;-89
2022/04/29 02:24:49;;;;;;;;;;;13.80;66.80;;;;;;5055890;28;19912;-89
2022/04/29 02:27:15;;;;;;;;;;;13.70;66.90;;;;;;5073997;28;19980;-89
2022/04/29 02:29:40;;;;;;;;;;;13.60;67.50;;;;;;5073731;28;20520;-89
2022/04/29 02:32:06;;;;;;;;;;;13.50;68.40;;;;;;5073816;28;19919;-89
2022/04/29 02:34:32;;;;;;;;;;;13.50;68.10;;;;;;5073630;28;19977;-89
2022/04/29 02:36:57;;;;;;;;;;;13.50;68.90;;;;;;5073841;28;19948;-89
2022/04/29 02:39:23;;;;;;;;;;;13.50;69.30;;;;;;5073744;28;20270;-89
2022/04/29 02:41:48;;;;;;;;;;;13.50;69.10;;;;;;5073616;28;19942;-90
2022/04/29 02:44:14;;;;;;;;;;;13.40;68.70;;;;;;5073646;28;19915;-89
2022/04/29 02:49:23;;;;;;;;;;;12.90;69.20;;;;;;5073492;28;19977;-90
2022/04/29 02:51:49;;;;;;;;;;;12.90;69.70;;;;;;5073440;28;19908;-89
2022/04/29 02:54:15;;;;;;;;;;;12.90;69.40;;;;;;5073526;28;20056;-89
2022/04/29 02:56:41;;;;;;;;;;;12.90;69.00;;;;;;5073512;28;19935;-90
2022/04/29 02:59:06;;;;;;;;;;;12.90;68.60;;;;;;5073431;28;20278;-89
2022/04/29 03:01:33;;;;;;;;;;;13.00;68.00;;;;;;5073472;28;20040;-89
2022/04/29 03:03:59;;;;;;;;;;;13.00;66.00;;;;;;5055246;28;19919;-89
2022/04/29 03:06:25;;;;;;;;;;;13.00;65.50;;;;;;5073372;28;19964;-89
2022/04/29 03:08:50;;;;;;;;;;;13.00;68.80;;;;;;5055176;28;19978;-89
2022/04/29 03:11:16;;;;;;;;;;;12.80;69.90;;;;;;5073342;28;19941;-90
2022/04/29 03:13:42;;;;;;;;;;;12.70;71.20;;;;;;5073029;28;20029;-89
2022/04/29 03:16:07;;;;;;;;;;;12.70;71.70;;;;;;5073230;28;19949;-89
2022/04/29 03:18:33;;;;;;;;;;;12.60;70.80;;;;;;5073207;28;20103;-89
2022/04/29 03:20:58;;;;;;;;;;;12.60;70.30;;;;;;5055235;28;19908;-89
2022/04/29 03:23:24;;;;;;;;;;;12.40;71.60;;;;;;5072775;28;19958;-89
2022/04/29 03:25:50;;;;;;;;;;;12.20;70.60;;;;;;5073047;28;19948;-88
2022/04/29 03:28:15;;;;;;;;;;;12.10;71.20;;;;;;5072997;28;19989;-89
2022/04/29 03:30:41;;;;;;;;;;;12.10;71.20;;;;;;5072958;28;19986;-89
2022/04/29 03:33:07;;;;;;;;;;;12.20;69.00;;;;;;5072780;28;19913;-89
2022/04/29 03:35:43;;;;;;;;;;;12.30;68.70;;;;;;5073081;28;19947;-89
2022/04/29 03:38:09;;;;;;;;;;;12.20;68.80;;;;;;5073349;28;19979;-89
2022/04/29 03:40:34;;;;;;;;;;;12.10;69.10;;;;;;5073033;28;19983;-89
2022/04/29 03:43:00;;;;;;;;;;;12.00;69.40;;;;;;5072809;28;19962;-89
2022/04/29 03:45:26;;;;;;;;;;;12.10;69.40;;;;;;5073053;28;19934;-89
2022/04/29 03:47:54;;;;;;;;;;;12.10;68.70;;;;;;5072952;28;20002;-89
2022/04/29 03:50:23;;;;;;;;;;;12.00;67.60;;;;;;5072883;28;19938;-89
2022/04/29 03:53:01;;;;;;;;;;;12.00;68.50;;;;;;5072990;28;19957;-89
2022/04/29 03:55:28;;;;;;;;;;;12.10;67.90;;;;;;5073146;28;19912;-89
2022/04/29 03:57:54;;;;;;;;;;;12.00;67.60;;;;;;5054836;28;19955;-89
2022/04/29 04:00:20;;;;;;;;;;;12.10;68.30;;;;;;5054894;28;19956;-89
2022/04/29 04:02:45;;;;;;;;;;;12.10;68.40;;;;;;5072444;28;19920;-90
2022/04/29 04:05:11;;;;;;;;;;;11.80;70.40;;;;;;5072909;28;19921;-89
2022/04/29 04:07:37;;;;;;;;;;;11.80;68.60;;;;;;5073064;28;19909;-89
2022/04/29 04:10:03;;;;;;;;;;;11.80;69.30;;;;;;5072627;28;20277;-89
2022/04/29 04:12:39;;;;;;;;;;;11.80;69.70;;;;;;5072640;28;20002;-89
2022/04/29 04:15:05;;;;;;;;;;;11.80;69.30;;;;;;5072718;28;19942;-89
2022/04/29 04:17:31;;;;;;;;;;;11.80;69.80;;;;;;5072674;28;20365;-89
2022/04/29 04:19:57;;;;;;;;;;;11.80;69.40;;;;;;5072914;28;19923;-89
2022/04/29 04:22:22;;;;;;;;;;;11.70;70.00;;;;;;5072404;28;19957;-89
2022/04/29 04:24:48;;;;;;;;;;;11.70;70.80;;;;;;5072611;28;19909;-89
2022/04/29 04:27:13;;;;;;;;;;;11.40;71.40;;;;;;5072529;28;19908;-89
2022/04/29 04:29:39;;;;;;;;;;;11.10;71.70;;;;;;5072261;28;19925;-89
2022/04/29 04:32:05;;;;;;;;;;;11.10;71.90;;;;;;5071957;28;20355;-89
2022/04/29 04:37:14;;;;;;;;;;;11.10;73.20;;;;;;5074434;28;20481;-88
2022/04/29 04:39:40;;;;;;;;;;;10.90;72.70;;;;;;5076006;28;19992;-89
2022/04/29 04:42:06;;;;;;;;;;;10.90;73.40;;;;;;5076093;28;19923;-88
2022/04/29 04:44:31;;;;;;;;;;;10.90;73.40;;;;;;5075942;28;20271;-88
2022/04/29 04:46:57;;;;;;;;;;;10.90;72.40;;;;;;5076108;28;20411;-88
2022/04/29 04:49:22;;;;;;;;;;;11.00;73.50;;;;;;5075953;28;20442;-88
2022/04/29 04:51:48;;;;;;;;;;;11.00;74.20;;;;;;5075828;28;19915;-88
2022/04/29 04:54:13;;;;;;;;;;;11.00;74.40;;;;;;5075480;28;20337;-88
2022/04/29 04:56:39;;;;;;;;;;;11.00;74.10;;;;;;5074847;28;19928;-88
2022/04/29 04:59:04;;;;;;;;;;;11.10;73.90;;;;;;5074322;28;21515;-88
2022/04/29 05:01:30;;;;;;;;;;;11.10;74.20;;;;;;5074215;28;19994;-88
2022/04/29 05:03:55;;;;;;;;;;;11.10;74.10;;;;;;5074693;28;19941;-88
2022/04/29 05:06:21;;;;;;;;;;;11.30;73.80;;;;;;5075016;28;19961;-88
2022/04/29 05:08:46;;;;;;;;;;;11.50;73.60;;;;;;5075308;28;20323;-88
2022/04/29 05:11:12;;;;;;;;;;;11.60;73.30;;;;;;5075109;28;20339;-88
2022/04/29 05:43:12;;;;;;;;;;;12.20;70.80;;;;;;5074079;28;19920;-88
2022/04/29 05:45:38;;;;;;;;;;;12.10;71.10;;;;;;5087389;28;19942;-89
2022/04/29 05:48:03;;;;;;;;;;;12.10;71.30;;;;;;5071376;28;20260;-88
2022/04/29 05:50:29;;;;;;;;;;;12.30;70.90;;;;;;5074945;28;19947;-89
2022/04/29 05:52:54;;;;;;;;;;;12.40;70.60;;;;;;5067558;28;20416;-87
2022/04/29 05:55:20;;;;;;;;;;;12.50;70.40;;;;;;5077741;28;20483;-89
2022/04/29 06:00:13;;;;;;;;;;;12.70;71.00;;;;;;5104520;27;20370;-88
2022/04/29 06:02:39;;;;;;;;;;;12.70;71.40;;;;;;5090851;28;19952;-90
2022/04/29 06:05:05;;;;;;;;;;;12.80;71.10;;;;;;5118317;27;19939;-89
2022/04/29 06:07:30;;;;;;;;;;;12.90;71.60;;;;;;5088778;28;19935;-90
2022/04/29 06:09:56;;;;;;;;;;;13.10;70.00;;;;;;5079770;28;19945;-90
2022/04/29 06:12:21;;;;;;;;;;;13.30;70.00;;;;;;5083684;28;19941;-90
2022/04/29 06:14:47;;;;;;;;;;;13.50;69.70;;;;;;5082205;28;19932;-91
2022/04/29 06:17:13;;;;;;;;;;;13.70;70.70;;;;;;5081219;28;19937;-90
2022/04/29 06:19:39;;;;;;;;;;;13.90;69.70;;;;;;5095623;28;19954;-90
2022/04/29 06:22:05;;;;;;;;;;;14.10;69.70;;;;;;5087832;28;20292;-90
2022/04/29 06:24:30;;;;;;;;;;;14.30;70.00;;;;;;5078069;28;19981;-90
2022/04/29 06:26:56;;;;;;;;;;;14.40;70.50;;;;;;5085755;28;19952;-90
2022/04/29 06:45:41;;;;;;;;;;;14.50;70.90;;;;;;5141805;27;19959;-91
2022/04/29 06:48:07;;;;;;;;;;;15.10;63.40;;;;;;5115071;28;19911;-90
2022/04/29 06:50:32;;;;;;;;;;;15.20;61.70;;;;;;5112773;28;19933;-90
2022/04/29 06:52:58;;;;;;;;;;;15.30;61.60;;;;;;5122966;27;20058;-90
2022/04/29 06:55:23;;;;;;;;;;;15.40;61.10;;;;;;5130102;27;19959;-92
2022/04/29 06:57:49;;;;;;;;;;;15.60;60.10;;;;;;5123583;28;20335;-90
2022/04/29 07:00:15;;;;;;;;;;;15.70;56.60;;;;;;5122300;27;19941;-91
2022/04/29 07:02:41;;;;;;;;;;;16.00;55.60;;;;;;5123665;27;19952;-91
2022/04/29 07:05:08;;;;;;;;;;;16.20;53.70;;;;;;5125481;27;20459;-90
2022/04/29 07:24:51;;;;;;;;;;;16.40;50.60;;;;;;5100959;27;20097;-88
2022/04/29 07:32:55;;;;;;;;;;;16.80;45.10;;;;;;5091674;27;19916;-88
2022/04/29 07:42:42;;;;;;;;;;;17.30;44.90;;;;;;5086199;27;19917;-89
2022/04/29 07:45:07;;;;;;;;;;;17.50;45.40;;;;;;5079635;28;19927;-89
2022/04/29 07:47:36;;;;;;;;;;;17.70;46.40;;;;;;5068805;28;20370;-89
2022/04/29 07:50:02;;;;;;;;;;;17.80;44.00;;;;;;5083385;28;19919;-88
2022/04/29 07:52:28;;;;;;;;;;;17.80;42.70;;;;;;5070745;28;19951;-88
2022/04/29 07:54:53;;;;;;;;;;;17.90;43.90;;;;;;5078313;28;19955;-88
2022/04/29 07:57:19;;;;;;;;;;;18.00;44.30;;;;;;5070135;28;20022;-88
2022/04/29 08:02:23;;;;;;;;;;;18.10;43.70;;;;;;5144989;27;19915;-89
2022/04/29 08:04:49;;;;;;;;;;;18.10;43.20;;;;;;5127666;28;20304;-89
2022/04/29 08:11:22;;;;;;;;;;;18.10;43.40;;;;;;5126971;27;19916;-87
2022/04/29 08:13:48;;;;;;;;;;;18.10;41.50;;;;;;5131723;27;19918;-88
2022/04/29 08:16:14;;;;;;;;;;;18.10;41.90;;;;;;5125126;27;19931;-87
2022/04/29 08:18:40;;;;;;;;;;;18.20;42.70;;;;;;5142680;27;19926;-89
2022/04/29 08:21:06;;;;;;;;;;;18.30;43.10;;;;;;5127311;27;19919;-89
2022/04/29 08:23:32;;;;;;;;;;;18.50;44.30;;;;;;5123662;27;19912;-90
2022/04/29 08:25:58;;;;;;;;;;;18.50;42.80;;;;;;5117982;28;19926;-89
2022/04/29 08:28:24;;;;;;;;;;;18.60;40.50;;;;;;5115958;28;19924;-89
2022/04/29 08:30:49;;;;;;;;;;;18.70;42.00;;;;;;5121563;28;19923;-89
2022/04/29 08:33:15;;;;;;;;;;;18.80;41.40;;;;;;5120436;27;20182;-89
2022/04/29 08:35:42;;;;;;;;;;;18.90;43.30;;;;;;5114439;27;19966;-89
2022/04/29 08:38:10;;;;;;;;;;;18.90;40.80;;;;;;5127881;27;19956;-90
2022/04/29 08:40:40;;;;;;;;;;;19.00;39.90;;;;;;5106847;28;20396;-89
2022/04/29 08:43:05;;;;;;;;;;;19.00;41.60;;;;;;5124171;27;19932;-89
2022/04/29 09:00:05;;;;;;;;;;;19.00;41.80;;;;;;5103863;27;20374;-88
2022/04/29 09:02:39;;;;;;;;;;;19.10;41.20;;;;;;5107419;28;19912;-88
2022/04/29 09:05:06;;;;;;;;;;;19.20;38.00;;;;;;5104252;28;20027;-88
2022/04/29 09:09:41;;;;;;;;;;;19.30;41.60;;;;;;5087797;27;20298;-88
2022/04/29 09:12:16;;;;;;;;;;;19.50;40.80;;;;;;5085318;28;19912;-87
2022/04/29 09:14:42;;;;;;;;;;;19.60;41.00;;;;;;5082248;28;19919;-88
2022/04/29 09:17:26;;;;;;;;;;;19.70;37.40;;;;;;5080657;28;19920;-88
2022/04/29 09:19:52;;;;;;;;;;;19.80;40.30;;;;;;5082555;28;19965;-88
2022/04/29 09:22:17;;;;;;;;;;;19.80;37.10;;;;;;5086815;28;19912;-87
2022/04/29 09:24:57;;;;;;;;;;;19.70;37.80;;;;;;5084104;28;20378;-88
2022/04/29 09:45:14;;;;;;;;;;;19.50;36.40;;;;;;5107045;27;20267;-88
2022/04/29 09:48:23;;;;;;;;;;;19.30;37.40;;;;;;5101184;27;19931;-88
2022/04/29 09:50:49;;;;;;;;;;;19.50;35.70;;;;;;5093636;28;19966;-88
2022/04/29 09:55:14;;;;;;;;;;;19.60;35.10;;;;;;5103184;27;19916;-88
2022/04/29 09:57:56;;;;;;;;;;;19.80;34.50;;;;;;5105815;28;19919;-88
2022/04/29 10:00:23;;;;;;;;;;;19.90;35.20;;;;;;5093358;28;19916;-88
2022/04/29 10:02:49;;;;;;;;;;;20.00;37.40;;;;;;5107186;28;19916;-88
2022/04/29 10:05:14;;;;;;;;;;;20.20;36.90;;;;;;5094602;28;20025;-88
2022/04/29 10:07:41;;;;;;;;;;;20.30;35.10;;;;;;5098938;28;19959;-88
2022/04/29 10:10:09;;;;;;;;;;;20.40;33.90;;;;;;5104923;28;19912;-88
2022/04/29 10:12:34;;;;;;;;;;;20.50;38.00;;;;;;5097590;28;19981;-88
2022/04/29 10:28:45;;;;;;;;;;;20.60;34.30;;;;;;5110830;27;19930;-89
2022/04/29 10:31:16;;;;;;;;;;;20.30;34.40;;;;;;5107998;28;20417;-88
2022/04/29 10:33:42;;;;;;;;;;;20.40;34.80;;;;;;5110535;28;19912;-88
2022/04/29 10:37:12;;;;;;;;;;;20.40;35.00;;;;;;5110959;27;19915;-88
2022/04/29 10:39:38;;;;;;;;;;;20.40;35.30;;;;;;5108701;28;19957;-89
2022/04/29 10:42:07;;;;;;;;;;;20.60;36.20;;;;;;5110925;28;19915;-89
2022/04/29 10:44:33;;;;;;;;;;;20.70;36.10;;;;;;5103453;28;19912;-88
2022/04/29 10:47:17;;;;;;;;;;;20.90;37.80;;;;;;5070278;28;19955;-88
2022/04/29 10:49:42;;;;;;;;;;;21.10;39.00;;;;;;5074789;28;20413;-89
2022/04/29 10:52:23;;;;;;;;;;;21.30;36.50;;;;;;5090415;28;19954;-89
2022/04/29 10:54:55;;;;;;;;;;;21.60;34.00;;;;;;5090494;28;19923;-89
2022/04/29 10:57:34;;;;;;;;;;;21.80;33.80;;;;;;5070373;28;20000;-88
2022/04/29 11:00:07;;;;;;;;;;;21.70;32.00;;;;;;5081293;28;19920;-89
2022/04/29 11:55:29;;;;;;;;;;;21.80;35.20;;;;;;5111094;27;20336;-88
2022/04/29 11:58:41;;;;;;;;;;;24.10;29.20;;;;;;5105607;27;20393;-88
2022/04/29 12:05:40;;;;;;;;;;;24.30;32.80;;;;;;5112297;27;19920;-89
2022/04/29 12:08:06;;;;;;;;;;;25.10;30.40;;;;;;5084195;28;19913;-89
2022/04/29 12:10:32;;;;;;;;;;;25.30;30.70;;;;;;5084849;28;19940;-88
2022/04/29 12:12:58;;;;;;;;;;;25.90;27.40;;;;;;5080102;28;20390;-89
2022/04/29 12:15:25;;;;;;;;;;;26.20;27.30;;;;;;5079529;28;19913;-89
2022/04/29 12:17:50;;;;;;;;;;;26.60;27.00;;;;;;5080789;28;19913;-89
2022/04/29 12:20:17;;;;;;;;;;;27.00;29.40;;;;;;5086959;28;19918;-89
2022/04/29 12:22:43;;;;;;;;;;;27.20;29.60;;;;;;5084267;28;19985;-89
2022/04/29 12:25:24;;;;;;;;;;;27.30;28.20;;;;;;5096097;28;20358;-88
2022/04/29 12:28:26;;;;;;;;;;;27.70;29.10;;;;;;5098106;28;19998;-89
2022/04/29 12:36:25;;;;;;;;;;;29.00;25.50;;;;;;5085222;28;20392;-90
2022/04/29 12:39:27;;;;;;;;;;;29.30;26.80;;;;;;5102951;27;20297;-89
2022/04/29 12:42:11;;;;;;;;;;;28.30;25.20;;;;;;5093091;28;19970;-89
2022/04/29 12:45:25;;;;;;;;;;;27.50;27.20;;;;;;5086775;27;19939;-89
2022/04/29 12:47:59;;;;;;;;;;;28.00;25.30;;;;;;5070628;28;20286;-90
2022/04/29 12:50:26;;;;;;;;;;;28.30;25.40;;;;;;5076615;28;19918;-90
2022/04/29 12:53:00;;;;;;;;;;;29.80;23.80;;;;;;5069618;28;19912;-90
2022/04/29 12:55:27;;;;;;;;;;;31.40;22.20;;;;;;5068613;28;20329;-90
2022/04/29 12:58:01;;;;;;;;;;;32.70;20.50;;;;;;5076337;28;19913;-91
2022/04/29 13:00:26;;;;;;;;;;;33.70;20.60;;;;;;5072790;28;19970;-89
2022/04/29 13:03:00;;;;;;;;;;;33.90;19.40;;;;;;5078486;28;19924;-90
2022/04/29 13:05:26;;;;;;;;;;;33.80;20.70;;;;;;5082187;28;19916;-90
2022/04/29 13:07:52;;;;;;;;;;;34.20;21.30;;;;;;5081207;28;19912;-89
2022/04/29 13:10:18;;;;;;;;;;;34.20;20.50;;;;;;5066727;28;20341;-90
2022/04/29 13:12:44;;;;;;;;;;;34.70;21.40;;;;;;5067471;28;19955;-89
2022/04/29 13:15:11;;;;;;;;;;;34.70;19.30;;;;;;5066080;28;19921;-89
2022/04/29 13:17:37;;;;;;;;;;;33.90;21.00;;;;;;5063515;28;20015;-89
2022/04/29 13:20:03;;;;;;;;;;;33.80;22.10;;;;;;5062634;28;20015;-89
2022/04/29 13:25:58;;;;;;;;;;;34.80;18.50;;;;;;5087163;27;19916;-90
2022/04/29 13:28:23;;;;;;;;;;;35.60;19.60;;;;;;5083893;28;20371;-89
2022/04/29 13:30:49;;;;;;;;;;;33.70;20.20;;;;;;5087197;28;19912;-89
2022/04/29 13:33:14;;;;;;;;;;;33.80;20.80;;;;;;5084197;28;19913;-89
2022/04/29 13:35:40;;;;;;;;;;;34.50;19.60;;;;;;5086486;28;20297;-89
2022/04/29 13:38:06;;;;;;;;;;;35.00;19.30;;;;;;5088827;28;19919;-89
2022/04/29 13:41:43;;;;;;;;;;;34.70;20.00;;;;;;5100605;27;19923;-90
2022/04/29 13:44:09;;;;;;;;;;;35.10;18.80;;;;;;5118340;27;19913;-90
2022/04/29 13:46:36;;;;;;;;;;;35.10;18.50;;;;;;5089240;28;19942;-90
2022/04/29 13:49:02;;;;;;;;;;;35.40;19.30;;;;;;5093518;28;19916;-90
2022/04/29 13:51:27;;;;;;;;;;;35.80;18.90;;;;;;5089430;28;19913;-90
2022/04/29 13:53:53;;;;;;;;;;;36.70;17.30;;;;;;5094922;28;20393;-90
2022/04/29 13:56:19;;;;;;;;;;;37.30;17.40;;;;;;5096006;28;20325;-90
2022/04/29 13:58:45;;;;;;;;;;;37.40;17.00;;;;;;5092673;28;19916;-90
2022/04/29 14:01:10;;;;;;;;;;;36.80;17.70;;;;;;5106954;28;19928;-90
2022/04/29 14:06:01;;;;;;;;;;;37.50;17.40;;;;;;5104003;27;19922;-90
2022/04/29 14:12:26;;;;;;;;;;;36.60;17.70;;;;;;4995061;28;20395;-89
2022/04/29 14:19:07;;;;;;;;;;;34.60;19.10;;;;;;5122112;27;19924;-90
2022/04/29 14:21:32;;;;;;;;;;;34.20;18.50;;;;;;5106530;28;19919;-90
2022/04/29 14:23:58;;;;;;;;;;;33.20;18.00;;;;;;5107099;28;19916;-90
2022/04/29 14:26:24;;;;;;;;;;;33.80;19.30;;;;;;5097285;28;19994;-90
2022/04/29 14:28:50;;;;;;;;;;;34.20;18.90;;;;;;5113525;28;19916;-90
2022/04/29 15:20:54;;;;;;;;;;;32.50;19.60;;;;;;5103740;27;19916;-90
2022/04/29 15:23:19;;;;;;;;;;;32.50;19.00;;;;;;5091483;28;19912;-89
2022/04/29 15:25:45;;;;;;;;;;;32.20;18.30;;;;;;5088938;28;19913;-89
2022/04/29 15:28:11;;;;;;;;;;;32.20;17.40;;;;;;5091499;28;19916;-90
2022/04/29 15:30:38;;;;;;;;;;;33.20;17.80;;;;;;5095903;28;19912;-90
2022/04/29 15:33:07;;;;;;;;;;;33.70;18.70;;;;;;5087791;28;20421;-90
2022/04/29 15:35:33;;;;;;;;;;;33.50;17.90;;;;;;5096004;28;19913;-90
2022/04/29 15:37:58;;;;;;;;;;;33.90;17.00;;;;;;5085977;28;20356;-90
2022/04/29 15:40:24;;;;;;;;;;;33.90;17.10;;;;;;5089847;28;19928;-90
2022/04/29 15:42:49;;;;;;;;;;;33.40;17.20;;;;;;5089153;28;19913;-89
2022/04/29 15:45:15;;;;;;;;;;;33.20;17.80;;;;;;5094278;28;19912;-90
2022/04/29 15:47:40;;;;;;;;;;;33.10;18.80;;;;;;5090624;28;19970;-89
2022/04/29 15:50:06;;;;;;;;;;;32.30;19.60;;;;;;5103142;28;19912;-90
2022/04/29 15:52:32;;;;;;;;;;;31.10;20.20;;;;;;5087669;28;19913;-89
2022/04/29 15:54:58;;;;;;;;;;;30.50;20.10;;;;;;5105411;28;20301;-89
2022/04/29 15:57:24;;;;;;;;;;;30.00;20.80;;;;;;5088427;28;19973;-89
2022/04/29 15:59:50;;;;;;;;;;;29.80;20.80;;;;;;5093391;28;19916;-90
2022/04/29 16:02:16;;;;;;;;;;;29.50;21.70;;;;;;5088677;28;19913;-89
2022/04/29 16:04:41;;;;;;;;;;;29.20;21.80;;;;;;5088971;28;19924;-89
2022/04/29 16:07:07;;;;;;;;;;;28.70;22.90;;;;;;5088129;28;19918;-89
2022/04/29 16:09:33;;;;;;;;;;;28.30;23.50;;;;;;5088654;28;19919;-90
2022/04/29 16:11:58;;;;;;;;;;;28.10;23.30;;;;;;5093539;28;19913;-89
2022/04/29 16:14:24;;;;;;;;;;;28.00;24.00;;;;;;5091853;28;19934;-89
2022/04/29 16:16:49;;;;;;;;;;;27.40;23.60;;;;;;5088556;28;19912;-89
2022/04/29 16:21:59;;;;;;;;;;;26.20;25.30;;;;;;5088178;28;19989;-89
2022/04/29 16:27:08;;;;;;;;;;;24.90;26.60;;;;;;5087200;28;20424;-88
2022/04/29 16:29:34;;;;;;;;;;;24.30;27.70;;;;;;5071035;28;19908;-89
2022/04/29 16:31:59;;;;;;;;;;;24.10;27.70;;;;;;5057958;28;19939;-89
2022/04/29 16:34:25;;;;;;;;;;;23.80;31.10;;;;;;5075674;28;20008;-89
2022/04/29 16:36:55;;;;;;;;;;;23.50;30.20;;;;;;5075813;28;19939;-89
2022/04/29 16:39:21;;;;;;;;;;;23.60;29.50;;;;;;5060130;28;19920;-89
2022/04/29 16:41:47;;;;;;;;;;;23.50;30.60;;;;;;5075702;28;19913;-90
2022/04/29 16:44:13;;;;;;;;;;;23.50;30.10;;;;;;5075229;28;20559;-89
2022/04/29 16:46:38;;;;;;;;;;;23.40;29.00;;;;;;5075002;28;19937;-89
2022/04/29 16:49:05;;;;;;;;;;;23.20;30.70;;;;;;5075163;28;19913;-89
2022/04/29 16:51:30;;;;;;;;;;;23.10;28.80;;;;;;5075834;28;19908;-89
2022/04/29 16:53:56;;;;;;;;;;;22.90;29.80;;;;;;5075256;28;20059;-89
2022/04/29 16:59:09;;;;;;;;;;;22.80;29.40;;;;;;5108739;27;19922;-89
2022/04/29 17:01:03;;;;;;;;;;;22.70;31.50;;;;;;5126376;28;19919;-89
2022/04/29 17:03:29;;;;;;;;;;;22.60;33.20;;;;;;5115134;28;19912;-89
2022/04/29 17:05:58;;;;;;;;;;;22.70;31.80;;;;;;5108469;28;19912;-89
2022/04/29 17:11:02;;;;;;;;;;;22.50;31.20;;;;;;5105688;27;20384;-90
2022/04/29 17:13:28;;;;;;;;;;;22.30;34.80;;;;;;5090693;28;20007;-89
2022/04/29 17:15:54;;;;;;;;;;;22.30;37.30;;;;;;5090646;28;19908;-90
2022/04/29 17:18:21;;;;;;;;;;;22.20;34.90;;;;;;5090296;28;19955;-89
2022/04/29 17:20:46;;;;;;;;;;;22.00;36.00;;;;;;5089835;28;19920;-89
2022/04/29 17:23:12;;;;;;;;;;;22.00;32.30;;;;;;5089850;28;19916;-89
2022/04/29 17:25:37;;;;;;;;;;;21.90;33.00;;;;;;5088351;28;19913;-89
2022/04/29 17:28:03;;;;;;;;;;;22.00;34.70;;;;;;5088817;28;19919;-89
2022/04/29 17:30:29;;;;;;;;;;;21.80;35.00;;;;;;5090313;28;19923;-89
2022/04/29 17:32:55;;;;;;;;;;;21.80;32.80;;;;;;5090303;28;19908;-89
2022/04/29 17:35:22;;;;;;;;;;;21.80;35.10;;;;;;5090307;28;20063;-90
2022/04/29 17:37:48;;;;;;;;;;;21.70;35.90;;;;;;5090230;28;19966;-89
2022/04/29 17:42:59;;;;;;;;;;;21.20;35.80;;;;;;5090493;28;19931;-88
2022/04/29 17:45:25;;;;;;;;;;;21.10;36.40;;;;;;5089943;28;20267;-89
2022/04/29 17:47:50;;;;;;;;;;;21.10;35.10;;;;;;5090099;28;19912;-89
2022/04/29 17:50:18;;;;;;;;;;;21.00;35.80;;;;;;5090222;28;19999;-89
2022/04/29 17:52:51;;;;;;;;;;;20.80;38.00;;;;;;5088682;28;20263;-89
2022/04/29 17:55:18;;;;;;;;;;;20.70;38.90;;;;;;5089893;28;20008;-89
2022/04/29 17:57:44;;;;;;;;;;;20.60;38.10;;;;;;5089841;28;19949;-90
2022/04/29 18:00:10;;;;;;;;;;;20.40;37.60;;;;;;5088593;28;19995;-89
2022/04/29 18:02:40;;;;;;;;;;;20.20;38.50;;;;;;5089773;28;19915;-89
2022/04/29 18:05:06;;;;;;;;;;;20.10;39.70;;;;;;5089742;28;19915;-89
2022/04/29 18:07:32;;;;;;;;;;;19.80;40.90;;;;;;5089399;28;19962;-89
2022/04/29 18:09:57;;;;;;;;;;;19.80;40.70;;;;;;5089374;28;19920;-88
2022/04/29 18:12:24;;;;;;;;;;;19.70;39.30;;;;;;5088308;28;19908;-89
2022/04/29 18:14:50;;;;;;;;;;;19.60;40.80;;;;;;5089610;28;19913;-89
2022/04/29 18:17:16;;;;;;;;;;;19.40;40.30;;;;;;5089489;28;19978;-88
2022/04/29 18:19:42;;;;;;;;;;;19.30;40.30;;;;;;5089431;28;20420;-89
2022/04/29 18:22:07;;;;;;;;;;;19.10;40.90;;;;;;5077369;28;19908;-89
2022/04/29 18:24:33;;;;;;;;;;;19.00;39.20;;;;;;5076116;28;19919;-89
2022/04/29 18:26:59;;;;;;;;;;;19.00;40.50;;;;;;5075789;28;20293;-89
2022/04/29 18:29:25;;;;;;;;;;;18.90;42.50;;;;;;5075703;28;19912;-89
2022/04/29 18:31:50;;;;;;;;;;;18.90;42.50;;;;;;5075193;28;19909;-89
2022/04/29 18:34:17;;;;;;;;;;;18.80;42.00;;;;;;5070260;28;20282;-89
2022/04/29 18:36:43;;;;;;;;;;;18.70;42.20;;;;;;5064802;28;19917;-89
2022/04/29 18:39:09;;;;;;;;;;;18.60;45.90;;;;;;5062530;28;19955;-89
2022/04/29 18:41:34;;;;;;;;;;;18.40;46.40;;;;;;5055522;28;19930;-89
2022/04/29 18:44:00;;;;;;;;;;;18.30;44.70;;;;;;5055496;28;19909;-89
2022/04/29 18:46:25;;;;;;;;;;;18.20;46.90;;;;;;5055437;28;19916;-89
2022/04/29 18:48:51;;;;;;;;;;;18.10;47.30;;;;;;5055369;28;19909;-89
2022/04/29 18:51:16;;;;;;;;;;;18.00;44.00;;;;;;5055644;28;19935;-88
2022/04/29 18:53:44;;;;;;;;;;;18.00;42.10;;;;;;5055341;28;20278;-89
2022/04/29 18:56:12;;;;;;;;;;;17.90;42.50;;;;;;5055594;28;19991;-88
2022/04/29 18:58:38;;;;;;;;;;;17.90;44.10;;;;;;5059957;28;19919;-89